Etusivu
METAR-TAF:

METAR-TAF

Lentoasemat :

Uumajan lentoasema

Umeå, Ruotsi

Leveyspiiri: 63-48N, Pituuspiiri: 020-17E, korkeus merenpinnasta: 7 m

Tämänhetkinen sää

Tämä raportti tehtiin 34 minuuttia sitten, kello 15.20 UTC
Tuuli 11 kn etelästä/lounaasta
Lämpötila 24°C
Kosteus 57%
Ilmanpaine 1010 hPa
Näkyvyys 10 km tai enemmän
ei pilviä alle 1500 m:ssä eikä cumulonimbus-pilviä

METAR: ESNU 231520Z 21011KT CAVOK 24/15 Q1010

Aika: 17:54 (15:54 UTC)

Sääennuste

Tämä raportti tehtiin 1 tunti ja 24 minuuttia sitten, kello 14.30 UTC
Ennuste voimassa 23. päivästä klo 15 UTC - 23. päivään klo 24 UTC
Tuuli 13 kn etelästä
Näkyvyys 10 km tai enemmän
ei pilviä alle 1500 m:ssä eikä cumulonimbus-pilviä
Tulossa
23. päivästä klo 19 UTC - 23. päivään klo 21 UTC
Tuuli 3 kn etelästä

TAF: ESNU 231430Z 2315/2324 18013KT CAVOK BECMG 2319/2321 17003KT

Säähavainnot ja -ennusteet yli 4000 lentoasemalta (METAR- ja TAF-raportit).

Käytössä olevat sääasemat on merkitty karttaan keltaisilla ja punaisilla pisteillä.

Aseta hiiri pisteen päälle nähdäksesi sääaseman nimen.

Klikkaa sitten nähdäksesi säähavainnot ja -ennusteet.

Kartan vaihtaminen: klikkaa mustalla rastilla varustettuja vihreitä pisteitä, niin voit zoomata sisään; viivalla varustettua vihreää pistettä, niin voit zoomata ulos tai vihreitä nuolia, niin pääset viereisille kartoille.


METAR-TAF: